Time;durP1;ratioP1;P1;durP2;ratioP2;P2;SDS_P1;SDS_P2;PMS_P1;PMS_P2;Temp;Humidity;BMP_temperature;BMP_pressure;BME280_temperature;BME280_humidity;BME280_pressure;Samples;Min_cycle;Max_cycle;Signal;HPM_P1;HPM_P2
2023/04/14 00:02:16;;;;;;;5.80;3.60;;;;;;;;;;5033758;28;20550;-82
2023/04/14 00:04:52;;;;;;;8.55;3.67;;;;;;;;;;5035999;28;20053;-82
2023/04/14 00:07:21;;;;;;;6.82;3.05;;;;;;;;;;5030893;28;20037;-82
2023/04/14 00:09:49;;;;;;;7.15;3.40;;;;;;;;;;5051403;28;20048;-82
2023/04/14 00:12:17;;;;;;;8.10;3.60;;;;;;;;;;5020064;28;20063;-82
2023/04/14 00:14:45;;;;;;;6.45;3.50;;;;;;;;;;5033665;28;20049;-82
2023/04/14 00:17:13;;;;;;;7.00;3.53;;;;;;;;;;5031513;28;20033;-82
2023/04/14 00:19:45;;;;;;;9.48;3.80;;;;;;;;;;5034420;28;20114;-82
2023/04/14 00:22:13;;;;;;;6.75;3.88;;;;;;;;;;5031979;28;20044;-82
2023/04/14 00:24:44;;;;;;;7.05;3.42;;;;;;;;;;5005470;28;20037;-82
2023/04/14 00:27:21;;;;;;;6.22;3.20;;;;;;;;;;5030125;28;20037;-82
2023/04/14 00:29:53;;;;;;;6.10;3.40;;;;;;;;;;5049699;28;20036;-83
2023/04/14 00:32:47;;;;;;;7.75;3.47;;;;;;;;;;5028652;28;20488;-82
2023/04/14 00:35:15;;;;;;;7.13;3.70;;;;;;;;;;5029201;28;20037;-82
2023/04/14 00:37:43;;;;;;;5.85;3.03;;;;;;;;;;5045076;28;20044;-82
2023/04/14 00:40:11;;;;;;;7.18;3.60;;;;;;;;;;5034435;28;20034;-82
2023/04/14 00:42:44;;;;;;;6.07;3.33;;;;;;;;;;5015537;28;20485;-82
2023/04/14 00:45:17;;;;;;;5.47;3.13;;;;;;;;;;5004492;28;20465;-82
2023/04/14 00:47:46;;;;;;;9.88;3.00;;;;;;;;;;5047798;28;20073;-82
2023/04/14 00:50:37;;;;;;;6.22;3.53;;;;;;;;;;5049414;28;20622;-82
2023/04/14 00:53:31;;;;;;;5.25;3.22;;;;;;;;;;5034222;28;20046;-82
2023/04/14 00:56:00;;;;;;;5.90;3.30;;;;;;;;;;5031672;28;20075;-82
2023/04/14 00:58:27;;;;;;;6.18;3.60;;;;;;;;;;5016676;28;20041;-82
2023/04/14 01:00:57;;;;;;;5.90;3.13;;;;;;;;;;5030151;28;20040;-82
2023/04/14 01:03:29;;;;;;;7.05;2.90;;;;;;;;;;5030031;28;20768;-82
2023/04/14 01:05:57;;;;;;;7.75;3.70;;;;;;;;;;5032653;28;20131;-82
2023/04/14 01:08:30;;;;;;;6.55;3.53;;;;;;;;;;5032428;28;20034;-82
2023/04/14 01:11:20;;;;;;;7.00;3.72;;;;;;;;;;5016814;28;20567;-82
2023/04/14 01:14:12;;;;;;;7.63;3.60;;;;;;;;;;5032975;28;20138;-82
2023/04/14 01:16:48;;;;;;;7.18;3.42;;;;;;;;;;5028231;28;20048;-81
2023/04/14 01:19:51;;;;;;;7.13;3.63;;;;;;;;;;5045478;28;20100;-82
2023/04/14 01:22:21;;;;;;;7.22;3.55;;;;;;;;;;5032490;28;20505;-82
2023/04/14 01:25:25;;;;;;;6.43;3.33;;;;;;;;;;5029797;28;20137;-82
2023/04/14 01:28:18;;;;;;;8.15;3.40;;;;;;;;;;5026681;28;20060;-82
2023/04/14 01:31:40;;;;;;;5.75;3.03;;;;;;;;;;5028876;28;20083;-82
2023/04/14 01:34:56;;;;;;;6.90;3.20;;;;;;;;;;5031010;28;20497;-82
2023/04/14 01:37:35;;;;;;;8.88;3.40;;;;;;;;;;5028056;28;20131;-82
2023/04/14 01:40:11;;;;;;;6.18;3.25;;;;;;;;;;5034500;28;20032;-82
2023/04/14 01:42:45;;;;;;;6.60;3.00;;;;;;;;;;5034885;28;20510;-83
2023/04/14 01:45:25;;;;;;;7.07;3.30;;;;;;;;;;5034763;28;20561;-82
2023/04/14 01:47:59;;;;;;;6.80;3.72;;;;;;;;;;5046218;28;21014;-82
2023/04/14 01:50:33;;;;;;;5.22;3.15;;;;;;;;;;5044957;28;20037;-82
2023/04/14 01:53:07;;;;;;;9.57;3.20;;;;;;;;;;5030843;28;20033;-82
2023/04/14 01:55:36;;;;;;;7.00;3.40;;;;;;;;;;5034418;28;20437;-82
2023/04/14 01:58:31;;;;;;;6.47;3.00;;;;;;;;;;5032356;28;20045;-82
2023/04/14 02:00:59;;;;;;;5.93;3.47;;;;;;;;;;5018385;28;20030;-82
2023/04/14 02:03:51;;;;;;;8.02;3.50;;;;;;;;;;5032745;28;20123;-82
2023/04/14 02:06:45;;;;;;;6.20;3.33;;;;;;;;;;5034097;28;20029;-82
2023/04/14 02:09:20;;;;;;;8.10;3.40;;;;;;;;;;5028736;28;20528;-82
2023/04/14 02:11:55;;;;;;;6.05;3.30;;;;;;;;;;5002250;28;20110;-82
2023/04/14 02:14:26;;;;;;;8.10;3.50;;;;;;;;;;5033674;28;20044;-82
2023/04/14 02:17:01;;;;;;;7.68;3.20;;;;;;;;;;5034679;28;20055;-82
2023/04/14 02:19:32;;;;;;;5.95;2.80;;;;;;;;;;5034136;28;20562;-82
2023/04/14 02:22:02;;;;;;;5.85;3.42;;;;;;;;;;5036204;28;20044;-82
2023/04/14 02:24:35;;;;;;;5.75;3.17;;;;;;;;;;5035733;28;20041;-82
2023/04/14 02:27:36;;;;;;;5.72;3.15;;;;;;;;;;5034248;28;20045;-82
2023/04/14 02:30:11;;;;;;;6.80;3.47;;;;;;;;;;5033040;28;20049;-82
2023/04/14 02:32:44;;;;;;;6.30;3.33;;;;;;;;;;5033633;28;20049;-82
2023/04/14 02:35:15;;;;;;;5.72;3.20;;;;;;;;;;5053366;28;20041;-82
2023/04/14 02:37:49;;;;;;;6.38;3.25;;;;;;;;;;5033870;28;20045;-82
2023/04/14 02:40:20;;;;;;;6.25;3.35;;;;;;;;;;5049248;28;20128;-82
2023/04/14 02:42:54;;;;;;;6.90;3.42;;;;;;;;;;5037266;28;20045;-82
2023/04/14 02:45:27;;;;;;;8.32;3.53;;;;;;;;;;5051416;28;20039;-82
2023/04/14 02:48:02;;;;;;;6.15;3.42;;;;;;;;;;5034801;28;22507;-82
2023/04/14 02:50:32;;;;;;;6.53;3.60;;;;;;;;;;5052393;28;20045;-82
2023/04/14 02:53:10;;;;;;;9.77;3.33;;;;;;;;;;5034123;28;20052;-82
2023/04/14 02:55:38;;;;;;;11.48;3.63;;;;;;;;;;5034996;28;20095;-82
2023/04/14 02:58:06;;;;;;;5.85;3.28;;;;;;;;;;5035110;28;20479;-82
2023/04/14 03:00:39;;;;;;;7.22;3.47;;;;;;;;;;5006413;28;20041;-82
2023/04/14 03:03:08;;;;;;;5.20;2.80;;;;;;;;;;5023630;28;20047;-82
2023/04/14 03:05:46;;;;;;;6.82;2.95;;;;;;;;;;5033350;28;20053;-82
2023/04/14 03:08:15;;;;;;;4.93;2.58;;;;;;;;;;5033837;28;20077;-82
2023/04/14 03:10:50;;;;;;;7.18;3.47;;;;;;;;;;5019503;28;20523;-82
2023/04/14 03:13:24;;;;;;;5.63;3.20;;;;;;;;;;5039247;28;20044;-82
2023/04/14 03:15:52;;;;;;;8.13;3.88;;;;;;;;;;5048095;28;20038;-82
2023/04/14 03:18:21;;;;;;;5.47;3.22;;;;;;;;;;5035018;28;20491;-82
2023/04/14 03:21:15;;;;;;;8.93;3.47;;;;;;;;;;5034787;28;20103;-82
2023/04/14 03:23:51;;;;;;;6.40;3.22;;;;;;;;;;5035539;28;20040;-82
2023/04/14 03:26:24;;;;;;;6.10;3.13;;;;;;;;;;5032413;28;20611;-82
2023/04/14 03:28:53;;;;;;;6.45;3.17;;;;;;;;;;5002755;28;20059;-82
2023/04/14 03:31:46;;;;;;;5.60;2.75;;;;;;;;;;5034895;28;20041;-82
2023/04/14 03:34:16;;;;;;;7.10;3.33;;;;;;;;;;5033877;28;20045;-82
2023/04/14 03:36:53;;;;;;;8.25;3.70;;;;;;;;;;5032605;28;20060;-81
2023/04/14 03:39:31;;;;;;;5.85;3.25;;;;;;;;;;5021260;28;20049;-82
2023/04/14 03:45:01;;;;;;;6.78;3.67;;;;;;;;;;4990850;28;20053;-82
2023/04/14 03:48:32;;;;;;;7.13;3.25;;;;;;;;;;5004703;28;20065;-81
2023/04/14 03:51:04;;;;;;;6.68;3.55;;;;;;;;;;4996977;28;20038;-82
2023/04/14 03:53:40;;;;;;;8.02;3.50;;;;;;;;;;4982714;28;20547;-82
2023/04/14 03:56:12;;;;;;;6.25;3.28;;;;;;;;;;5000050;28;20064;-82
2023/04/14 03:59:08;;;;;;;8.10;3.45;;;;;;;;;;4993977;28;20038;-82
2023/04/14 04:01:40;;;;;;;9.68;3.25;;;;;;;;;;4996592;28;20042;-82
2023/04/14 04:04:14;;;;;;;7.93;3.63;;;;;;;;;;4992361;28;20045;-81
2023/04/14 04:07:11;;;;;;;6.53;3.30;;;;;;;;;;5011732;28;20041;-82
2023/04/14 04:09:41;;;;;;;5.95;3.42;;;;;;;;;;4997333;28;20062;-82
2023/04/14 04:12:12;;;;;;;7.13;3.65;;;;;;;;;;4975840;28;20049;-82
2023/04/14 04:14:45;;;;;;;5.95;3.20;;;;;;;;;;4994569;28;20062;-82
2023/04/14 04:17:17;;;;;;;7.25;3.50;;;;;;;;;;4978624;28;20444;-82
2023/04/14 04:19:48;;;;;;;6.80;3.08;;;;;;;;;;4997243;28;20056;-82
2023/04/14 04:22:24;;;;;;;7.57;3.50;;;;;;;;;;4990068;28;20046;-82
2023/04/14 04:24:53;;;;;;;6.60;3.28;;;;;;;;;;5032398;28;20033;-82
2023/04/14 04:27:26;;;;;;;6.75;3.42;;;;;;;;;;5021301;28;20048;-82
2023/04/14 04:30:23;;;;;;;7.80;4.18;;;;;;;;;;5030603;28;20032;-82
2023/04/14 04:32:51;;;;;;;6.32;3.13;;;;;;;;;;5034253;28;20037;-82
2023/04/14 04:35:20;;;;;;;6.95;3.72;;;;;;;;;;5031122;28;20056;-82
2023/04/14 04:37:57;;;;;;;8.50;3.67;;;;;;;;;;5017773;28;20067;-81
2023/04/14 04:40:25;;;;;;;8.93;4.10;;;;;;;;;;5034363;28;20058;-82
2023/04/14 04:42:53;;;;;;;10.07;4.10;;;;;;;;;;5030673;28;20392;-82
2023/04/14 04:46:01;;;;;;;7.65;3.67;;;;;;;;;;5011577;28;20052;-82
2023/04/14 04:48:29;;;;;;;12.63;4.88;;;;;;;;;;4982356;28;20132;-82
2023/04/14 04:50:57;;;;;;;8.57;4.35;;;;;;;;;;4993508;28;20046;-82
2023/04/14 04:53:25;;;;;;;6.63;3.78;;;;;;;;;;4994008;28;20514;-82
2023/04/14 04:55:54;;;;;;;10.45;4.25;;;;;;;;;;4978651;28;20057;-82
2023/04/14 04:58:21;;;;;;;6.20;3.40;;;;;;;;;;5010336;28;20054;-82
2023/04/14 05:00:54;;;;;;;8.13;3.60;;;;;;;;;;5010897;28;20042;-82
2023/04/14 05:03:21;;;;;;;7.78;3.60;;;;;;;;;;4996064;28;20045;-82
2023/04/14 05:05:49;;;;;;;7.35;3.78;;;;;;;;;;5012709;28;20057;-82
2023/04/14 05:08:17;;;;;;;9.38;4.57;;;;;;;;;;4994200;28;20041;-82
2023/04/14 05:10:45;;;;;;;9.80;5.07;;;;;;;;;;5012766;28;20038;-82
2023/04/14 05:13:13;;;;;;;15.52;6.22;;;;;;;;;;5008116;28;20092;-82
2023/04/14 05:15:42;;;;;;;13.02;5.70;;;;;;;;;;5009769;28;20065;-82
2023/04/14 05:18:09;;;;;;;10.93;5.60;;;;;;;;;;5011934;28;20135;-82
2023/04/14 05:20:37;;;;;;;9.93;4.60;;;;;;;;;;5009087;28;20052;-82
2023/04/14 05:23:06;;;;;;;9.30;5.00;;;;;;;;;;5010346;28;20045;-82
2023/04/14 05:25:59;;;;;;;11.10;5.03;;;;;;;;;;5035734;28;20053;-82
2023/04/14 05:28:57;;;;;;;8.50;3.95;;;;;;;;;;5032379;28;20072;-82
2023/04/14 05:31:25;;;;;;;9.45;4.32;;;;;;;;;;5034415;28;20118;-82
2023/04/14 05:34:43;;;;;;;7.47;3.90;;;;;;;;;;5048166;28;20880;-82
2023/04/14 05:37:11;;;;;;;7.03;3.47;;;;;;;;;;5028175;28;20128;-81
2023/04/14 05:39:43;;;;;;;7.88;4.28;;;;;;;;;;5032629;28;20044;-83
2023/04/14 05:42:11;;;;;;;6.55;3.45;;;;;;;;;;5027841;28;20402;-82
2023/04/14 05:44:39;;;;;;;9.88;4.28;;;;;;;;;;5015533;28;20053;-82
2023/04/14 05:47:07;;;;;;;7.53;3.92;;;;;;;;;;5012430;28;20127;-82
2023/04/14 05:49:35;;;;;;;9.20;3.97;;;;;;;;;;5031929;28;20484;-81
2023/04/14 05:52:03;;;;;;;8.20;4.10;;;;;;;;;;5030123;28;20038;-82
2023/04/14 05:54:40;;;;;;;10.70;4.95;;;;;;;;;;5024375;28;20144;-82
2023/04/14 05:57:13;;;;;;;9.27;4.50;;;;;;;;;;5031486;28;20037;-81
2023/04/14 05:59:45;;;;;;;10.23;4.30;;;;;;;;;;5028087;28;20049;-82
2023/04/14 06:02:13;;;;;;;12.80;4.85;;;;;;;;;;5025019;28;20128;-81
2023/04/14 06:04:43;;;;;;;9.50;4.20;;;;;;;;;;5033149;28;20044;-82
2023/04/14 06:07:37;;;;;;;8.05;4.28;;;;;;;;;;5012224;28;20034;-81
2023/04/14 06:10:06;;;;;;;10.25;4.55;;;;;;;;;;5029804;28;20037;-81
2023/04/14 06:12:39;;;;;;;11.88;4.50;;;;;;;;;;5031938;28;20049;-82
2023/04/14 06:15:07;;;;;;;10.20;4.82;;;;;;;;;;5033712;28;20037;-82
2023/04/14 06:17:35;;;;;;;12.88;5.28;;;;;;;;;;5034029;28;20411;-82
2023/04/14 06:20:04;;;;;;;10.38;5.32;;;;;;;;;;5035041;28;20056;-82
2023/04/14 06:22:31;;;;;;;10.52;5.15;;;;;;;;;;5034154;28;20075;-82
2023/04/14 06:25:03;;;;;;;10.55;4.97;;;;;;;;;;5048755;28;20508;-82
2023/04/14 06:27:31;;;;;;;8.80;4.78;;;;;;;;;;5033001;28;20033;-82
2023/04/14 06:30:24;;;;;;;10.50;4.88;;;;;;;;;;5039636;28;20576;-82
2023/04/14 06:32:58;;;;;;;10.65;4.78;;;;;;;;;;5011500;28;20045;-82
2023/04/14 06:35:33;;;;;;;11.25;5.28;;;;;;;;;;5029404;28;20069;-82
2023/04/14 06:38:26;;;;;;;10.70;5.20;;;;;;;;;;5026043;28;20517;-82
2023/04/14 06:41:00;;;;;;;12.15;5.20;;;;;;;;;;5041899;28;20041;-82
2023/04/14 06:43:27;;;;;;;13.52;5.70;;;;;;;;;;5028398;28;20037;-82
2023/04/14 06:45:55;;;;;;;10.23;5.70;;;;;;;;;;5032205;28;20068;-81
2023/04/14 06:48:24;;;;;;;11.73;5.82;;;;;;;;;;5032800;28;20037;-81
2023/04/14 06:50:55;;;;;;;12.10;5.43;;;;;;;;;;5033942;28;20443;-81
2023/04/14 06:53:24;;;;;;;15.30;6.25;;;;;;;;;;5037077;28;20103;-81
2023/04/14 06:55:59;;;;;;;13.60;5.88;;;;;;;;;;5015483;28;20126;-82
2023/04/14 06:58:27;;;;;;;11.45;6.13;;;;;;;;;;5034090;28;20463;-82
2023/04/14 07:01:00;;;;;;;12.27;5.97;;;;;;;;;;5035760;28;20042;-82
2023/04/14 07:03:29;;;;;;;14.60;6.05;;;;;;;;;;5036408;28;20075;-82
2023/04/14 07:06:05;;;;;;;13.48;6.53;;;;;;;;;;5035797;28;20045;-81
2023/04/14 07:08:35;;;;;;;14.35;6.63;;;;;;;;;;5037036;28;20469;-82
2023/04/14 07:11:07;;;;;;;13.57;6.72;;;;;;;;;;5032309;28;20148;-81
2023/04/14 07:13:37;;;;;;;11.27;6.75;;;;;;;;;;5035946;28;20050;-82
2023/04/14 07:16:29;;;;;;;11.20;6.10;;;;;;;;;;5039218;28;20040;-82
2023/04/14 07:19:01;;;;;;;14.35;6.22;;;;;;;;;;5036254;28;20137;-82
2023/04/14 07:21:30;;;;;;;12.63;4.97;;;;;;;;;;5036580;28;20045;-83
2023/04/14 07:24:02;;;;;;;10.70;4.68;;;;;;;;;;5053935;28;20049;-82
2023/04/14 07:26:31;;;;;;;9.00;3.97;;;;;;;;;;5037157;28;20049;-82
2023/04/14 07:29:03;;;;;;;8.43;2.90;;;;;;;;;;5032506;28;20040;-82
2023/04/14 07:31:33;;;;;;;7.80;3.28;;;;;;;;;;5036955;28;20585;-82
2023/04/14 07:34:05;;;;;;;9.38;2.85;;;;;;;;;;5019033;28;20064;-83
2023/04/14 07:36:39;;;;;;;11.55;3.10;;;;;;;;;;5050657;28;20124;-82
2023/04/14 07:39:11;;;;;;;6.30;2.65;;;;;;;;;;5038164;28;20485;-82
2023/04/14 07:41:40;;;;;;;10.65;2.95;;;;;;;;;;5015682;28;20112;-82
2023/04/14 07:44:07;;;;;;;8.32;1.80;;;;;;;;;;5035294;28;20061;-83
2023/04/14 07:46:35;;;;;;;7.65;1.80;;;;;;;;;;5050564;28;20692;-83
2023/04/14 07:49:07;;;;;;;5.82;2.58;;;;;;;;;;5038031;28;20041;-83
2023/04/14 07:51:35;;;;;;;7.18;2.08;;;;;;;;;;5034401;28;20042;-83
2023/04/14 07:54:04;;;;;;;5.43;1.88;;;;;;;;;;5036349;28;20621;-83
2023/04/14 07:56:33;;;;;;;6.85;2.28;;;;;;;;;;5029455;28;20117;-83
2023/04/14 07:59:01;;;;;;;7.80;2.55;;;;;;;;;;5031335;28;20438;-83
2023/04/14 08:01:29;;;;;;;6.80;1.83;;;;;;;;;;5031200;28;20037;-82
2023/04/14 08:04:03;;;;;;;8.25;2.70;;;;;;;;;;5033987;28;20119;-82
2023/04/14 08:06:31;;;;;;;6.75;1.90;;;;;;;;;;5022768;28;20053;-83
2023/04/14 08:09:23;;;;;;;10.90;1.65;;;;;;;;;;5034694;28;20072;-83
2023/04/14 08:12:15;;;;;;;4.00;1.50;;;;;;;;;;5034991;28;20114;-83
2023/04/14 08:14:46;;;;;;;4.70;1.92;;;;;;;;;;5034557;28;20041;-83
2023/04/14 08:17:13;;;;;;;8.40;2.00;;;;;;;;;;5052536;28;20447;-83
2023/04/14 08:19:46;;;;;;;4.93;2.00;;;;;;;;;;5031722;28;20069;-83
2023/04/14 08:22:13;;;;;;;3.88;1.50;;;;;;;;;;5036361;28;20041;-83
2023/04/14 08:24:45;;;;;;;7.15;1.75;;;;;;;;;;5030082;28;20434;-83
2023/04/14 08:27:37;;;;;;;4.53;1.40;;;;;;;;;;5049810;28;20116;-84
2023/04/14 08:30:06;;;;;;;6.00;2.00;;;;;;;;;;5048838;28;20424;-84
2023/04/14 08:32:37;;;;;;;4.07;1.73;;;;;;;;;;5035294;28;20037;-84
2023/04/14 08:35:09;;;;;;;4.38;1.70;;;;;;;;;;5035647;28;20406;-84
2023/04/14 08:38:23;;;;;;;4.07;1.70;;;;;;;;;;5034289;28;20076;-83
2023/04/14 08:41:18;;;;;;;6.68;2.08;;;;;;;;;;5027087;28;21719;-83
2023/04/14 08:43:47;;;;;;;4.80;1.85;;;;;;;;;;5037549;28;20046;-84
2023/04/14 08:46:41;;;;;;;5.97;1.83;;;;;;;;;;5030646;28;20033;-83
2023/04/14 08:49:14;;;;;;;4.25;1.52;;;;;;;;;;5037030;28;20040;-83
2023/04/14 08:51:46;;;;;;;5.93;1.65;;;;;;;;;;5019346;28;20041;-83
2023/04/14 08:54:14;;;;;;;6.35;1.92;;;;;;;;;;5049902;28;20115;-83
2023/04/14 08:56:47;;;;;;;9.90;1.77;;;;;;;;;;5034677;28;20048;-84
2023/04/14 08:59:15;;;;;;;5.68;1.65;;;;;;;;;;5031025;28;20038;-84
2023/04/14 09:01:45;;;;;;;4.28;1.80;;;;;;;;;;5048267;28;20388;-83
2023/04/14 09:04:15;;;;;;;6.15;2.20;;;;;;;;;;5035153;28;20048;-84
2023/04/14 09:06:43;;;;;;;6.60;1.85;;;;;;;;;;5030972;28;20068;-84
2023/04/14 09:09:11;;;;;;;6.57;1.67;;;;;;;;;;5024285;28;20476;-84
2023/04/14 09:11:40;;;;;;;11.85;1.90;;;;;;;;;;5033251;28;20038;-84
2023/04/14 09:14:11;;;;;;;4.47;1.50;;;;;;;;;;5052187;28;20530;-84
2023/04/14 09:17:05;;;;;;;5.75;1.52;;;;;;;;;;5032297;28;20962;-84
2023/04/14 09:19:34;;;;;;;4.30;1.45;;;;;;;;;;5037905;28;20029;-84
2023/04/14 09:22:01;;;;;;;5.53;1.70;;;;;;;;;;5015279;28;20044;-84
2023/04/14 09:24:32;;;;;;;7.72;2.10;;;;;;;;;;5019920;28;20041;-84
2023/04/14 09:27:04;;;;;;;3.78;1.60;;;;;;;;;;5031619;28;20045;-84
2023/04/14 09:29:33;;;;;;;3.28;1.48;;;;;;;;;;5032107;28;20029;-84
2023/04/14 09:32:06;;;;;;;5.50;1.65;;;;;;;;;;5028312;28;20090;-84
2023/04/14 09:34:57;;;;;;;5.65;1.40;;;;;;;;;;5023306;28;20041;-84
2023/04/14 09:37:53;;;;;;;5.07;1.40;;;;;;;;;;5049677;28;20041;-84
2023/04/14 09:40:33;;;;;;;7.38;1.55;;;;;;;;;;5033902;28;20060;-84
2023/04/14 09:43:01;;;;;;;6.05;1.20;;;;;;;;;;5029980;28;20579;-84
2023/04/14 09:45:43;;;;;;;5.05;1.42;;;;;;;;;;5031717;28;20037;-84
2023/04/14 09:48:55;;;;;;;5.80;1.20;;;;;;;;;;5036083;28;20048;-84
2023/04/14 09:51:28;;;;;;;7.80;1.30;;;;;;;;;;5029409;28;20049;-84
2023/04/14 09:54:01;;;;;;;5.40;1.35;;;;;;;;;;5034382;28;20045;-84
2023/04/14 09:56:29;;;;;;;5.85;1.30;;;;;;;;;;5035716;28;20045;-84
2023/04/14 09:58:58;;;;;;;5.60;1.33;;;;;;;;;;5030438;28;20048;-84
2023/04/14 10:01:32;;;;;;;6.55;1.50;;;;;;;;;;5021392;28;20041;-84
2023/04/14 10:04:02;;;;;;;5.63;1.13;;;;;;;;;;5034701;28;20045;-84
2023/04/14 10:06:31;;;;;;;4.88;1.45;;;;;;;;;;5052433;28;20059;-83
2023/04/14 10:09:04;;;;;;;5.03;1.40;;;;;;;;;;5024145;28;20044;-84
2023/04/14 10:11:46;;;;;;;4.70;1.55;;;;;;;;;;5045055;28;20057;-83
2023/04/14 10:14:40;;;;;;;5.72;1.25;;;;;;;;;;5034139;28;21130;-84
2023/04/14 10:17:33;;;;;;;3.90;1.23;;;;;;;;;;5035319;28;20042;-84
2023/04/14 10:20:03;;;;;;;4.72;1.20;;;;;;;;;;5030879;28;20046;-84
2023/04/14 10:22:31;;;;;;;3.85;1.23;;;;;;;;;;5021757;28;20037;-83
2023/04/14 10:25:00;;;;;;;5.70;1.30;;;;;;;;;;5033450;28;20126;-84
2023/04/14 10:27:29;;;;;;;3.00;1.25;;;;;;;;;;5033744;28;20638;-83
2023/04/14 10:29:58;;;;;;;5.20;1.20;;;;;;;;;;5016124;28;20045;-84
2023/04/14 10:32:30;;;;;;;5.15;1.42;;;;;;;;;;5027044;28;20041;-83
2023/04/14 10:35:21;;;;;;;7.85;1.30;;;;;;;;;;5036370;28;20033;-84
2023/04/14 10:37:52;;;;;;;3.70;1.10;;;;;;;;;;5035087;28;20537;-83
2023/04/14 10:40:19;;;;;;;8.18;1.73;;;;;;;;;;5037940;28;20152;-83
2023/04/14 10:42:56;;;;;;;7.88;1.48;;;;;;;;;;5039607;28;20107;-83
2023/04/14 10:45:23;;;;;;;6.47;1.73;;;;;;;;;;5037374;28;20034;-83
2023/04/14 10:47:51;;;;;;;3.42;1.30;;;;;;;;;;5035497;28;20554;-83
2023/04/14 10:50:48;;;;;;;3.25;1.20;;;;;;;;;;5039381;28;20202;-83
2023/04/14 10:53:27;;;;;;;6.43;1.17;;;;;;;;;;5031852;28;20143;-83
2023/04/14 10:56:01;;;;;;;3.45;1.55;;;;;;;;;;5030377;28;20045;-83
2023/04/14 10:58:57;;;;;;;6.68;1.35;;;;;;;;;;5035744;28;20083;-83
2023/04/14 11:01:31;;;;;;;6.20;1.40;;;;;;;;;;5035640;28;20138;-83
2023/04/14 11:04:18;;;;;;;3.38;1.30;;;;;;;;;;5035520;28;20961;-83
2023/04/14 11:07:19;;;;;;;4.13;1.00;;;;;;;;;;5037572;28;20749;-83
2023/04/14 11:09:48;;;;;;;5.75;1.75;;;;;;;;;;5036433;28;20087;-83
2023/04/14 11:12:28;;;;;;;2.13;0.95;;;;;;;;;;5031004;28;20033;-83
2023/04/14 11:15:21;;;;;;;2.67;0.90;;;;;;;;;;5034481;28;20041;-83
2023/04/14 11:17:49;;;;;;;3.78;1.45;;;;;;;;;;5007368;28;20104;-83
2023/04/14 11:20:19;;;;;;;4.03;1.33;;;;;;;;;;5033044;28;20042;-83
2023/04/14 11:22:49;;;;;;;9.65;1.80;;;;;;;;;;5028885;28;20052;-83
2023/04/14 11:25:19;;;;;;;5.88;1.75;;;;;;;;;;5052686;28;20052;-83
2023/04/14 11:28:30;;;;;;;4.97;1.20;;;;;;;;;;5029940;28;20132;-83
2023/04/14 11:30:58;;;;;;;3.47;1.10;;;;;;;;;;5034778;28;20041;-83
2023/04/14 11:33:51;;;;;;;6.00;1.15;;;;;;;;;;5038524;28;20036;-84
2023/04/14 11:36:19;;;;;;;3.90;1.27;;;;;;;;;;5022150;28;20555;-83
2023/04/14 11:39:14;;;;;;;5.70;1.33;;;;;;;;;;5037994;28;20037;-83
2023/04/14 11:41:46;;;;;;;2.97;1.50;;;;;;;;;;5031597;28;20033;-83
2023/04/14 11:44:18;;;;;;;2.90;1.23;;;;;;;;;;5029136;28;20466;-83
2023/04/14 11:46:52;;;;;;;5.53;1.35;;;;;;;;;;5032368;28;20491;-83
2023/04/14 11:49:32;;;;;;;4.88;1.20;;;;;;;;;;5036235;28;20041;-83
2023/04/14 11:52:06;;;;;;;3.53;1.60;;;;;;;;;;5036442;28;20135;-83
2023/04/14 11:54:39;;;;;;;3.67;2.05;;;;;;;;;;5036764;28;20423;-82
2023/04/14 11:57:35;;;;;;;6.28;1.92;;;;;;;;;;5050510;28;20050;-83
2023/04/14 12:00:04;;;;;;;4.22;1.45;;;;;;;;;;5033017;28;20116;-83
2023/04/14 12:02:34;;;;;;;4.72;1.52;;;;;;;;;;5046195;28;20111;-83
2023/04/14 12:05:10;;;;;;;3.80;1.63;;;;;;;;;;4991073;28;20052;-82
2023/04/14 12:07:41;;;;;;;6.15;1.92;;;;;;;;;;5036277;28;20088;-83
2023/04/14 12:10:10;;;;;;;2.75;1.35;;;;;;;;;;5037707;28;20091;-82
2023/04/14 12:12:37;;;;;;;4.05;1.65;;;;;;;;;;5035096;28;20029;-83
2023/04/14 12:15:09;;;;;;;4.30;1.58;;;;;;;;;;5032691;28;20052;-83
2023/04/14 12:17:42;;;;;;;5.97;1.60;;;;;;;;;;5035799;28;20446;-83
2023/04/14 12:20:15;;;;;;;7.55;1.65;;;;;;;;;;5035850;28;20810;-82
2023/04/14 12:22:48;;;;;;;3.22;1.60;;;;;;;;;;5017177;28;20128;-82
2023/04/14 12:25:18;;;;;;;5.07;1.67;;;;;;;;;;5020992;28;20132;-83
2023/04/14 12:27:52;;;;;;;3.55;1.70;;;;;;;;;;5050038;28;20103;-82
2023/04/14 12:30:51;;;;;;;5.05;2.08;;;;;;;;;;5019691;28;20045;-82
2023/04/14 12:33:30;;;;;;;3.05;1.52;;;;;;;;;;5018267;28;20452;-82
2023/04/14 12:36:13;;;;;;;5.53;1.42;;;;;;;;;;5024159;28;20123;-82
2023/04/14 12:39:03;;;;;;;2.92;1.70;;;;;;;;;;5033204;28;20495;-82
2023/04/14 12:41:58;;;;;;;4.68;1.73;;;;;;;;;;5033981;28;20037;-83
2023/04/14 12:44:31;;;;;;;4.97;1.75;;;;;;;;;;5029367;28;20149;-84
2023/04/14 12:47:02;;;;;;;3.95;1.92;;;;;;;;;;5032300;28;20041;-84
2023/04/14 12:50:40;;;;;;;4.47;1.52;;;;;;;;;;5033742;28;20487;-84
2023/04/14 12:55:23;;;;;;;4.90;1.63;;;;;;;;;;5069256;28;21027;-86
2023/04/14 13:00:14;;;;;;;4.70;1.88;;;;;;;;;;5013725;28;20046;-86
2023/04/14 13:04:25;;;;;;;5.28;1.85;;;;;;;;;;4955786;28;20046;-85
2023/04/14 13:07:58;;;;;;;3.88;1.58;;;;;;;;;;4912170;29;20889;-84
2023/04/14 13:11:50;;;;;;;4.35;1.70;;;;;;;;;;4915615;29;20044;-85
2023/04/14 13:16:29;;;;;;;6.47;2.20;;;;;;;;;;4881213;29;20036;-85
2023/04/14 13:20:38;;;;;;;5.90;2.28;;;;;;;;;;4809925;29;20049;-87
2023/04/14 13:32:42;;;;;;;4.53;1.80;;;;;;;;;;4774186;29;20131;-85
2023/04/14 13:36:10;;;;;;;4.57;1.90;;;;;;;;;;4775865;29;20138;-87
2023/04/14 13:39:17;;;;;;;5.05;2.17;;;;;;;;;;4795228;29;20122;-84
2023/04/14 13:42:04;;;;;;;8.98;1.95;;;;;;;;;;4789172;29;20144;-85
2023/04/14 13:44:48;;;;;;;6.28;2.10;;;;;;;;;;4782966;29;20127;-84
2023/04/14 13:47:32;;;;;;;7.68;2.10;;;;;;;;;;4815604;29;20094;-85
2023/04/14 13:51:17;;;;;;;5.33;2.43;;;;;;;;;;4883908;29;20080;-85
2023/04/14 13:55:22;;;;;;;7.22;2.55;;;;;;;;;;4946743;28;20198;-85
2023/04/14 13:59:09;;;;;;;6.78;2.17;;;;;;;;;;5010731;28;20045;-84
2023/04/14 14:03:17;;;;;;;5.78;2.70;;;;;;;;;;5006811;28;20373;-85
2023/04/14 14:07:37;;;;;;;5.20;2.83;;;;;;;;;;5012951;28;20049;-85
2023/04/14 14:11:31;;;;;;;5.38;2.88;;;;;;;;;;5022734;28;20083;-85
2023/04/14 14:15:42;;;;;;;5.55;2.88;;;;;;;;;;5039203;28;20527;-85
2023/04/14 14:20:16;;;;;;;5.03;2.25;;;;;;;;;;5035292;28;20567;-84
2023/04/14 14:24:41;;;;;;;3.67;2.08;;;;;;;;;;5055894;28;20199;-85
2023/04/14 14:29:06;;;;;;;4.18;2.50;;;;;;;;;;5043207;28;20044;-85
2023/04/14 14:33:33;;;;;;;4.57;2.60;;;;;;;;;;5037280;28;20086;-85
2023/04/14 14:37:22;;;;;;;3.75;1.98;;;;;;;;;;5041656;28;20057;-84
2023/04/14 14:41:10;;;;;;;7.88;2.10;;;;;;;;;;5038268;28;20041;-84
2023/04/14 14:45:19;;;;;;;3.13;1.60;;;;;;;;;;5040091;28;20053;-84
2023/04/14 14:49:10;;;;;;;4.45;2.63;;;;;;;;;;5041908;28;20049;-84
2023/04/14 14:52:59;;;;;;;3.70;2.20;;;;;;;;;;5039261;28;20049;-84
2023/04/14 14:56:37;;;;;;;4.78;2.55;;;;;;;;;;5039871;28;20049;-85
2023/04/14 15:01:04;;;;;;;6.03;3.15;;;;;;;;;;5038740;28;20581;-85
2023/04/14 15:03:48;;;;;;;5.85;2.65;;;;;;;;;;5025375;28;20510;-84
2023/04/14 15:07:55;;;;;;;7.28;3.25;;;;;;;;;;5043834;28;20110;-85
2023/04/14 15:11:46;;;;;;;5.53;3.20;;;;;;;;;;5038879;28;20057;-85
2023/04/14 15:14:56;;;;;;;4.68;2.58;;;;;;;;;;5034277;28;20068;-84
2023/04/14 15:18:17;;;;;;;11.38;3.50;;;;;;;;;;5043073;28;20127;-85
2023/04/14 15:21:50;;;;;;;6.95;3.25;;;;;;;;;;5029561;28;20048;-85
2023/04/14 15:25:07;;;;;;;3.78;1.38;;;;;;;;;;5040954;28;20042;-85
2023/04/14 15:28:40;;;;;;;3.65;1.98;;;;;;;;;;5037156;28;20140;-85
2023/04/14 15:32:04;;;;;;;7.05;2.50;;;;;;;;;;5036302;28;20614;-84
2023/04/14 15:35:34;;;;;;;5.68;2.75;;;;;;;;;;5039789;28;20502;-85
2023/04/14 15:39:02;;;;;;;7.70;3.10;;;;;;;;;;5040431;28;20099;-85
2023/04/14 15:41:49;;;;;;;;;;;;;;;;;;4995237;28;20064;-83
2023/04/14 15:45:26;;;;;;;6.53;3.40;;;;;;;;;;5012798;28;20441;-84
2023/04/14 15:49:21;;;;;;;7.10;3.50;;;;;;;;;;5012050;28;20045;-85
2023/04/14 15:52:44;;;;;;;8.32;3.30;;;;;;;;;;5017079;28;20385;-85
2023/04/14 15:56:38;;;;;;;4.72;2.47;;;;;;;;;;5017185;28;20053;-84
2023/04/14 16:00:05;;;;;;;5.53;2.40;;;;;;;;;;5015969;28;20164;-84
2023/04/14 16:02:47;;;;;;;4.85;2.50;;;;;;;;;;4990471;28;20128;-84
2023/04/14 16:05:29;;;;;;;3.78;1.90;;;;;;;;;;4992712;28;20060;-84
2023/04/14 16:08:37;;;;;;;3.95;1.77;;;;;;;;;;4997214;28;20048;-84
2023/04/14 16:11:22;;;;;;;4.22;1.85;;;;;;;;;;4985000;28;20626;-84
2023/04/14 16:14:07;;;;;;;3.25;1.50;;;;;;;;;;5005875;28;20484;-84
2023/04/14 16:17:14;;;;;;;6.75;2.67;;;;;;;;;;5009821;28;20045;-84
2023/04/14 16:19:57;;;;;;;5.10;2.00;;;;;;;;;;5012804;28;20049;-85
2023/04/14 16:22:41;;;;;;;4.40;1.90;;;;;;;;;;5033206;28;20435;-84
2023/04/14 16:25:48;;;;;;;6.22;1.98;;;;;;;;;;5037102;28;20044;-85
2023/04/14 16:28:40;;;;;;;3.75;1.67;;;;;;;;;;5031187;28;20037;-84
2023/04/14 16:31:22;;;;;;;4.35;1.88;;;;;;;;;;5017207;28;20049;-84
2023/04/14 16:34:06;;;;;;;4.05;1.92;;;;;;;;;;5030439;28;20490;-84
2023/04/14 16:36:51;;;;;;;6.13;1.88;;;;;;;;;;5028684;28;20048;-84
2023/04/14 16:39:56;;;;;;;5.15;2.20;;;;;;;;;;5025161;28;20131;-84
2023/04/14 16:42:37;;;;;;;4.13;2.13;;;;;;;;;;5031728;28;20456;-85
2023/04/14 16:45:22;;;;;;;3.58;1.90;;;;;;;;;;5032823;28;20049;-84